createdAt,value
2023-01-05T00:02:08.515Z,43.60
2023-01-05T00:07:11.460Z,43.50
2023-01-05T00:12:33.434Z,43.50
2023-01-05T00:17:53.797Z,43.50
2023-01-05T00:22:56.617Z,43.50
2023-01-05T00:28:01.192Z,43.50
2023-01-05T00:33:04.146Z,43.50
2023-01-05T00:38:07.112Z,43.50
2023-01-05T00:43:11.286Z,43.60
2023-01-05T00:48:14.080Z,43.60
2023-01-05T00:53:16.948Z,43.50
2023-01-05T00:58:21.141Z,43.60
2023-01-05T01:03:24.042Z,43.60
2023-01-05T01:08:26.984Z,43.50
2023-01-05T01:13:31.215Z,43.50
2023-01-05T01:18:34.070Z,43.60
2023-01-05T01:23:37.751Z,43.60
2023-01-05T01:28:41.948Z,43.50
2023-01-05T01:33:44.810Z,43.60
2023-01-05T01:38:47.604Z,43.70
2023-01-05T01:43:53.625Z,43.70
2023-01-05T01:48:59.794Z,43.70
2023-01-05T01:54:05.456Z,43.70
2023-01-05T01:59:10.338Z,43.70
2023-01-05T02:04:13.606Z,43.80
2023-01-05T02:09:16.555Z,43.80
2023-01-05T02:14:33.187Z,43.80
2023-01-05T02:20:12.849Z,44.40
2023-01-05T02:25:48.920Z,43.80
2023-01-05T02:31:09.818Z,43.90
2023-01-05T02:36:26.518Z,43.80
2023-01-05T02:41:37.337Z,43.90
2023-01-05T02:46:41.554Z,43.80
2023-01-05T02:51:50.539Z,43.80
2023-01-05T02:56:59.606Z,43.80
2023-01-05T03:02:06.930Z,43.90
2023-01-05T03:07:14.034Z,43.80
2023-01-05T03:12:40.617Z,43.90
2023-01-05T03:17:47.827Z,43.80
2023-01-05T03:23:10.634Z,43.90
2023-01-05T03:28:36.252Z,43.90
2023-01-05T03:34:05.303Z,43.90
2023-01-05T03:39:10.508Z,43.90
2023-01-05T03:44:13.640Z,43.90
2023-01-05T03:49:17.919Z,43.90
2023-01-05T03:54:20.737Z,43.90
2023-01-05T03:59:23.770Z,43.70
2023-01-05T04:04:27.925Z,43.70
2023-01-05T04:09:30.766Z,43.70
2023-01-05T04:14:33.673Z,43.70
2023-01-05T04:19:37.823Z,43.80
2023-01-05T04:24:40.716Z,43.80
2023-01-05T04:29:43.524Z,43.80
2023-01-05T04:34:47.691Z,43.90
2023-01-05T04:39:50.559Z,43.80
2023-01-05T04:44:53.387Z,43.90
2023-01-05T04:49:57.539Z,43.80
2023-01-05T04:55:00.352Z,43.90
2023-01-05T05:00:03.994Z,43.90
2023-01-05T05:05:08.859Z,43.90
2023-01-05T05:10:11.872Z,43.90
2023-01-05T05:15:14.775Z,44.00
2023-01-05T05:20:19.110Z,44.00
2023-01-05T05:25:21.910Z,44.00
2023-01-05T05:30:24.754Z,43.80
2023-01-05T05:35:28.928Z,43.50
2023-01-05T05:40:31.719Z,43.50
2023-01-05T05:45:34.535Z,43.50
2023-01-05T05:50:38.699Z,43.50
2023-01-05T05:55:41.622Z,43.50
2023-01-05T06:00:44.678Z,43.60
2023-01-05T06:05:48.817Z,43.50
2023-01-05T06:10:51.928Z,43.60
2023-01-05T06:15:54.940Z,43.60
2023-01-05T06:21:01.780Z,43.60
2023-01-05T06:26:05.017Z,43.60
2023-01-05T06:31:07.971Z,43.60
2023-01-05T06:36:12.416Z,43.70
2023-01-05T06:41:15.420Z,43.70
2023-01-05T06:46:18.326Z,43.60
2023-01-05T06:51:22.528Z,43.70
2023-01-05T06:56:25.329Z,43.80
2023-01-05T07:01:28.266Z,43.80
2023-01-05T07:06:32.649Z,43.90
2023-01-05T07:11:35.592Z,44.00
2023-01-05T07:16:38.473Z,44.00
2023-01-05T07:21:42.704Z,44.00
2023-01-05T07:26:45.543Z,44.00
2023-01-05T07:31:52.240Z,44.00
2023-01-05T07:36:56.576Z,44.00
2023-01-05T07:41:59.609Z,44.00
2023-01-05T07:47:02.638Z,44.00
2023-01-05T07:52:06.913Z,44.00
2023-01-05T07:57:09.840Z,44.10
2023-01-05T08:02:12.714Z,44.10
2023-01-05T08:07:16.999Z,44.20
2023-01-05T08:12:19.824Z,44.30
2023-01-05T08:17:22.618Z,44.30
2023-01-05T08:22:26.762Z,44.20
2023-01-05T08:27:29.577Z,44.10
2023-01-05T08:32:32.488Z,44.10
2023-01-05T08:37:36.686Z,44.70
2023-01-05T08:42:40.606Z,44.20
2023-01-05T08:47:43.656Z,44.20
2023-01-05T08:52:47.830Z,44.20
2023-01-05T08:57:51.018Z,44.20
2023-01-05T09:02:53.939Z,44.30
2023-01-05T09:07:58.165Z,44.40
2023-01-05T09:13:01.002Z,44.50
2023-01-05T09:18:04.367Z,44.40
2023-01-05T09:23:08.670Z,44.50
2023-01-05T09:28:11.535Z,44.50
2023-01-05T09:33:14.401Z,44.60
2023-01-05T09:38:18.549Z,44.50
2023-01-05T09:43:26.591Z,44.50
2023-01-05T09:48:34.752Z,44.80
2023-01-05T09:53:40.103Z,44.50
2023-01-05T09:58:44.956Z,44.50
2023-01-05T10:04:04.870Z,44.50
2023-01-05T10:09:13.890Z,44.60
2023-01-05T10:14:21.005Z,44.60
2023-01-05T10:19:24.067Z,44.60
2023-01-05T10:24:39.160Z,44.60
2023-01-05T10:29:45.926Z,44.60
2023-01-05T10:34:56.717Z,44.60
2023-01-05T10:40:14.860Z,44.70
2023-01-05T10:45:18.766Z,44.70
2023-01-05T10:50:32.703Z,44.70
2023-01-05T10:55:44.616Z,44.80
2023-01-05T11:00:47.776Z,44.70
2023-01-05T11:05:50.690Z,44.60
2023-01-05T11:10:57.857Z,44.40
2023-01-05T11:16:10.603Z,44.50
2023-01-05T11:21:16.857Z,44.40
2023-01-05T11:26:33.573Z,44.40
2023-01-05T11:31:42.824Z,44.30
2023-01-05T11:36:53.756Z,44.30
2023-01-05T11:42:24.881Z,44.30
2023-01-05T11:47:32.773Z,44.40
2023-01-05T11:52:40.110Z,44.50
2023-01-05T11:57:44.285Z,44.50
2023-01-05T12:03:15.585Z,44.70
2023-01-05T12:08:27.505Z,44.70
2023-01-05T12:13:57.375Z,44.80
2023-01-05T12:19:20.811Z,44.90
2023-01-05T12:24:48.829Z,44.80
2023-01-05T12:36:05.153Z,44.80
2023-01-05T12:41:42.925Z,44.80
2023-01-05T12:47:00.812Z,44.90
2023-01-05T12:52:09.620Z,44.90
2023-01-05T12:57:16.016Z,44.90
2023-01-05T13:02:29.941Z,44.90
2023-01-05T13:07:39.088Z,45.00
2023-01-05T13:12:42.957Z,45.10
2023-01-05T13:17:50.171Z,45.20
2023-01-05T13:22:58.529Z,45.20
2023-01-05T13:28:01.405Z,45.70
2023-01-05T13:33:27.588Z,45.10
2023-01-05T13:38:58.263Z,45.00
2023-01-05T13:44:21.865Z,45.00
2023-01-05T13:49:50.775Z,45.00
2023-01-05T13:55:02.389Z,45.10
2023-01-05T14:00:12.266Z,45.10
2023-01-05T14:05:25.650Z,45.00
2023-01-05T14:10:30.541Z,45.20
2023-01-05T14:15:37.612Z,45.20
2023-01-05T14:20:49.123Z,45.20
2023-01-05T14:25:53.997Z,45.20
2023-01-05T14:31:44.675Z,45.30
2023-01-05T14:37:01.368Z,45.20
2023-01-05T14:42:18.196Z,45.10
2023-01-05T14:47:35.427Z,45.00
2023-01-05T14:52:57.119Z,45.00
2023-01-05T14:58:01.329Z,45.00
2023-01-05T15:03:14.003Z,45.00
2023-01-05T15:08:29.377Z,45.00
2023-01-05T15:14:37.222Z,45.10
2023-01-05T15:20:00.247Z,45.20
2023-01-05T15:26:02.592Z,45.10
2023-01-05T15:31:23.943Z,45.20
2023-01-05T15:36:30.095Z,45.30
2023-01-05T15:41:34.319Z,45.20
2023-01-05T15:46:37.330Z,45.10
2023-01-05T15:51:40.717Z,45.10
2023-01-05T15:56:45.894Z,45.20
2023-01-05T16:01:48.734Z,45.20
2023-01-05T16:06:58.293Z,45.30
2023-01-05T16:12:07.316Z,45.40
2023-01-05T16:17:14.716Z,45.40
2023-01-05T16:22:22.383Z,45.40
2023-01-05T16:27:27.012Z,45.50
2023-01-05T16:32:33.455Z,45.60
2023-01-05T16:37:36.314Z,45.60
2023-01-05T16:42:50.671Z,45.60
2023-01-05T16:47:54.327Z,45.60
2023-01-05T16:52:59.516Z,45.60
2023-01-05T16:58:05.831Z,45.60
2023-01-05T17:03:30.019Z,45.50
2023-01-05T17:08:36.029Z,45.40
2023-01-05T17:13:43.253Z,45.20
2023-01-05T17:18:46.524Z,45.20
2023-01-05T17:23:52.183Z,45.20
2023-01-05T17:28:59.285Z,45.50
2023-01-05T17:34:02.318Z,45.50
2023-01-05T17:39:05.851Z,45.40
2023-01-05T17:44:10.322Z,45.20
2023-01-05T17:49:15.075Z,45.20
2023-01-05T17:54:17.988Z,45.20
2023-01-05T17:59:22.212Z,45.00
2023-01-05T18:04:26.344Z,44.60
2023-01-05T18:09:30.482Z,44.00
2023-01-05T18:14:34.754Z,43.70
2023-01-05T18:19:37.584Z,43.50
2023-01-05T18:24:41.128Z,43.30
2023-01-05T18:29:45.360Z,43.20
2023-01-05T18:34:48.237Z,43.70
2023-01-05T18:39:51.118Z,43.40
2023-01-05T18:44:55.371Z,43.50
2023-01-05T18:49:59.029Z,43.70
2023-01-05T18:55:03.540Z,43.70
2023-01-05T19:00:09.141Z,43.50
2023-01-05T19:05:11.949Z,43.40
2023-01-05T19:10:14.821Z,43.30
2023-01-05T19:15:19.196Z,43.30
2023-01-05T19:20:23.659Z,43.20
2023-01-05T19:25:26.475Z,43.10
2023-01-05T19:30:31.151Z,42.90
2023-01-05T19:35:34.061Z,42.50
2023-01-05T19:40:36.875Z,42.90
2023-01-05T19:45:41.128Z,43.20
2023-01-05T19:50:43.918Z,43.20
2023-01-05T19:55:46.782Z,43.90
2023-01-05T20:00:51.077Z,43.20
2023-01-05T20:05:53.907Z,43.40
2023-01-05T20:10:56.738Z,43.50
2023-01-05T20:16:05.787Z,43.60
2023-01-05T20:21:09.517Z,43.50
2023-01-05T20:26:21.774Z,43.50
2023-01-05T20:31:27.877Z,43.60
2023-01-05T20:36:31.177Z,43.80
2023-01-05T20:41:36.419Z,43.70
2023-01-05T20:46:43.502Z,44.20
2023-01-05T20:51:46.420Z,44.10
2023-01-05T20:56:49.370Z,44.30
2023-01-05T21:01:53.952Z,44.20
2023-01-05T21:06:59.290Z,45.00
2023-01-05T21:12:03.055Z,45.00
2023-01-05T21:17:07.634Z,45.00
2023-01-05T21:22:10.585Z,44.60
2023-01-05T21:27:13.406Z,44.80
2023-01-05T21:32:17.573Z,44.60
2023-01-05T21:37:20.423Z,44.60
2023-01-05T21:42:42.596Z,44.90
2023-01-05T21:47:52.173Z,44.70
2023-01-05T21:53:12.694Z,44.80
2023-01-05T21:58:15.580Z,45.50
2023-01-05T22:03:19.760Z,45.30
2023-01-05T22:08:23.794Z,45.00
2023-01-05T22:13:27.045Z,45.20
2023-01-05T22:18:31.943Z,44.90
2023-01-05T22:23:35.335Z,44.90
2023-01-05T22:28:40.152Z,44.90
2023-01-05T22:33:46.253Z,45.20
2023-01-05T22:38:50.836Z,45.10
2023-01-05T22:43:55.686Z,45.10
2023-01-05T22:49:00.350Z,45.20
2023-01-05T22:54:03.751Z,45.20
2023-01-05T22:59:06.701Z,45.40
2023-01-05T23:04:11.312Z,45.10
2023-01-05T23:09:16.454Z,45.30
2023-01-05T23:14:19.431Z,45.20
2023-01-05T23:19:23.660Z,45.60
2023-01-05T23:24:26.513Z,45.50
2023-01-05T23:29:29.677Z,45.50
2023-01-05T23:34:35.057Z,45.60
2023-01-05T23:39:37.879Z,45.60
2023-01-05T23:44:40.792Z,45.50
2023-01-05T23:49:44.945Z,45.50
2023-01-05T23:54:47.825Z,45.40
2023-01-05T23:59:50.719Z,45.20
